Airfield :
LOGIN :

Register | Disclaimer

   EN    FR    IT 

 










Legend :    VFR   Marginal VFR   IFR   Intensive IFR   Very Intensive IFR
Visi :
Ceiling :
>= 8 km
>= 3000ft
5 to 8 km
1000 to 3000 ft
1500m to 5 km
500 to 1000 ft
800 to 1500m
200 to 500 ft
< 800m
< 200 ft
Symbols :   Thunderstorms  Fog  Heavy snow  Heavy precipitations  Wind > 20 kt
SIGMETs :     Misc.  Thunderstorms  Icing  Turbulence  Mountain Waves  Volcanic Ashes






- Airport Elevation : 33 ft
- IATA code : PLQ


EYPA - Palanga

CURRENT METAR :
  • 201920Z 19012KT 9999 BKN020 04/02 Q1015 R19/0///95

EXPIRED METARs :
  • 201850Z 19009KT 9999 BKN028 04/02 Q1015 R19/0///95
  • 201820Z 18010KT 9999 BKN028 03/02 Q1016 R19/1///95
  • 201750Z 19010KT 9999 FEW012 BKN029 03/02 Q1016 R19/1///95
  • 201720Z 20010KT 9999 BKN022 04/02 Q1016 R19/1///95
  • 201650Z 20009KT 9999 BKN022 04/02 Q1016 R19/1///95

TAF TAF EYPA
Valid from the 20 at 18:00 until the 21 at 18:00 UTC


201719Z 2018/2118 18010KT 9000 BKN020
TEMPO 2018/2024 SCT010
BECMG 2100/2101 18014G24KT OVC010
TEMPO 2101/2110 3000 RA BR BKN005
BECMG 2110/2112 26014G24KT BKN015



MET'MAP, your aeronautical weather chart ! - Copyright ORBIFLY December 2007 - Disclaimer

ORBIFLY MET'MAP TEAM :

Programming & Development : Alexandra Zaïnal
Concept & original design : Baudouin d'Aumeries
Assistance for programming : Marc-Olivier Méhu
Technical & hardware support : Manuel Goepfert

Contact : metmap@orbifly.com




SOURCES & CREDITS :

   NOAA